createdAt,value
2018-10-16T00:01:57.703Z,86.20
2018-10-16T00:04:26.227Z,85.70
2018-10-16T00:06:54.718Z,86.00
2018-10-16T00:09:23.244Z,86.60
2018-10-16T00:12:01.693Z,86.20
2018-10-16T00:14:30.583Z,85.90
2018-10-16T00:16:59.471Z,86.50
2018-10-16T00:19:27.930Z,86.30
2018-10-16T00:21:56.402Z,86.60
2018-10-16T00:24:24.882Z,86.40
2018-10-16T00:26:53.386Z,86.70
2018-10-16T00:29:22.495Z,86.70
2018-10-16T00:31:51.256Z,87.70
2018-10-16T00:34:19.749Z,87.50
2018-10-16T00:36:48.332Z,87.60
2018-10-16T00:39:17.447Z,87.40
2018-10-16T00:41:51.225Z,87.50
2018-10-16T00:44:19.750Z,87.40
2018-10-16T00:46:48.214Z,87.20
2018-10-16T00:49:16.694Z,87.70
2018-10-16T00:51:45.237Z,86.80
2018-10-16T00:54:13.723Z,86.70
2018-10-16T00:56:42.197Z,86.90
2018-10-16T00:59:10.704Z,86.70
2018-10-16T01:01:39.153Z,86.80
2018-10-16T01:04:08.378Z,86.60
2018-10-16T01:06:37.578Z,86.50
2018-10-16T01:09:09.441Z,87.20
2018-10-16T01:11:38.213Z,86.40
2018-10-16T01:14:06.740Z,85.80
2018-10-16T01:16:35.251Z,86.70
2018-10-16T01:19:03.758Z,86.10
2018-10-16T01:21:32.277Z,85.40
2018-10-16T01:24:00.758Z,85.10
2018-10-16T01:26:29.239Z,85.60
2018-10-16T01:28:57.723Z,85.70
2018-10-16T01:31:26.581Z,85.60
2018-10-16T01:33:55.182Z,85.30
2018-10-16T01:36:23.670Z,84.90
2018-10-16T01:38:52.200Z,84.90
2018-10-16T01:41:20.658Z,85.50
2018-10-16T01:43:49.214Z,86.00
2018-10-16T01:46:18.008Z,86.10
2018-10-16T01:48:46.477Z,85.60
2018-10-16T01:51:14.926Z,85.40
2018-10-16T01:53:43.400Z,85.40
2018-10-16T01:56:11.865Z,85.80
2018-10-16T01:58:40.342Z,86.20
2018-10-16T02:01:08.811Z,86.90
2018-10-16T02:03:37.282Z,87.30
2018-10-16T02:06:05.743Z,86.80
2018-10-16T02:08:34.198Z,86.80
2018-10-16T02:11:02.691Z,87.00
2018-10-16T02:13:31.130Z,86.60
2018-10-16T02:15:59.614Z,87.00
2018-10-16T02:18:28.054Z,87.10
2018-10-16T02:20:56.513Z,87.00
2018-10-16T02:23:24.963Z,87.10
2018-10-16T02:25:53.426Z,87.50
2018-10-16T02:28:21.858Z,87.00
2018-10-16T02:30:50.348Z,88.70
2018-10-16T02:33:18.810Z,87.40
2018-10-16T02:35:47.424Z,86.90
2018-10-16T02:38:15.823Z,87.10
2018-10-16T02:40:44.314Z,87.30
2018-10-16T02:43:12.790Z,87.10
2018-10-16T02:45:41.268Z,87.60
2018-10-16T02:48:09.782Z,87.90
2018-10-16T02:50:38.250Z,88.00
2018-10-16T02:53:06.718Z,88.30
2018-10-16T02:55:35.179Z,88.50
2018-10-16T02:58:03.841Z,88.20
2018-10-16T03:00:32.300Z,87.80
2018-10-16T03:03:00.765Z,87.90
2018-10-16T03:05:29.246Z,87.20
2018-10-16T03:07:57.718Z,87.80
2018-10-16T03:10:26.233Z,88.50
2018-10-16T03:12:54.697Z,88.30
2018-10-16T03:15:23.195Z,87.60
2018-10-16T03:17:51.654Z,87.10
2018-10-16T03:20:20.187Z,87.90
2018-10-16T03:22:48.670Z,87.70
2018-10-16T03:25:17.125Z,86.30
2018-10-16T03:27:45.589Z,86.20
2018-10-16T03:30:14.082Z,87.10
2018-10-16T03:32:42.585Z,87.50
2018-10-16T03:35:12.016Z,88.20
2018-10-16T03:37:41.448Z,88.10
2018-10-16T03:40:10.926Z,88.00
2018-10-16T03:42:40.463Z,87.40
2018-10-16T03:45:10.745Z,88.00
2018-10-16T03:47:39.705Z,88.60
2018-10-16T03:50:09.170Z,89.30
2018-10-16T03:52:37.661Z,89.90
2018-10-16T03:55:06.630Z,89.50
2018-10-16T03:57:35.111Z,89.50
2018-10-16T04:00:03.671Z,89.40
2018-10-16T04:02:32.145Z,89.20
2018-10-16T04:05:00.633Z,89.40
2018-10-16T04:07:29.155Z,89.10
2018-10-16T04:09:57.591Z,89.50
2018-10-16T04:12:26.062Z,89.50
2018-10-16T04:14:54.504Z,89.90
2018-10-16T04:17:22.974Z,89.00
2018-10-16T04:19:51.748Z,89.10
2018-10-16T04:22:20.302Z,89.40
2018-10-16T04:24:48.742Z,89.30
2018-10-16T04:27:17.198Z,89.20
2018-10-16T04:29:45.661Z,89.10
2018-10-16T04:32:14.138Z,89.10
2018-10-16T04:34:42.639Z,89.60
2018-10-16T04:37:11.073Z,89.80
2018-10-16T04:39:39.553Z,89.60
2018-10-16T04:42:08.011Z,89.80
2018-10-16T04:44:36.497Z,89.60
2018-10-16T04:47:05.455Z,89.10
2018-10-16T04:49:33.902Z,89.30
2018-10-16T04:52:02.346Z,89.00
2018-10-16T04:54:30.854Z,89.40
2018-10-16T04:56:59.305Z,90.00
2018-10-16T04:59:27.844Z,90.20
2018-10-16T05:01:56.292Z,90.10
2018-10-16T05:04:24.794Z,90.10
2018-10-16T05:06:53.273Z,90.40
2018-10-16T05:09:21.758Z,89.60
2018-10-16T05:11:52.115Z,89.70
2018-10-16T05:14:20.588Z,90.00
2018-10-16T05:16:49.052Z,90.10
2018-10-16T05:19:17.664Z,90.10
2018-10-16T05:21:45.974Z,90.10
2018-10-16T05:24:14.420Z,90.00
2018-10-16T05:26:42.927Z,90.00
2018-10-16T05:29:11.666Z,89.90
2018-10-16T05:31:40.221Z,90.00
2018-10-16T05:34:09.332Z,90.00
2018-10-16T05:36:38.247Z,90.00
2018-10-16T05:39:09.321Z,90.10
2018-10-16T05:41:37.829Z,89.90
2018-10-16T05:44:06.403Z,90.10
2018-10-16T05:46:34.858Z,90.30
2018-10-16T05:49:03.478Z,90.30
2018-10-16T05:51:31.925Z,90.00
2018-10-16T05:54:00.399Z,90.10
2018-10-16T05:56:28.874Z,90.20
2018-10-16T05:58:57.319Z,90.40
2018-10-16T06:01:26.176Z,90.50
2018-10-16T06:03:54.609Z,90.10
2018-10-16T06:06:23.059Z,90.00
2018-10-16T06:08:51.553Z,90.10
2018-10-16T06:11:20.000Z,90.20
2018-10-16T06:13:48.694Z,90.30
2018-10-16T06:16:17.158Z,90.40
2018-10-16T06:18:45.627Z,90.40
2018-10-16T06:21:14.103Z,90.50
2018-10-16T06:23:42.577Z,90.30
2018-10-16T06:26:11.066Z,90.10
2018-10-16T06:28:39.515Z,90.50
2018-10-16T06:31:07.993Z,90.50
2018-10-16T06:33:36.533Z,90.60
2018-10-16T06:36:05.225Z,90.80
2018-10-16T06:38:33.686Z,90.80
2018-10-16T06:41:02.301Z,90.70
2018-10-16T06:43:30.934Z,90.60
2018-10-16T06:45:59.381Z,90.60
2018-10-16T06:48:27.994Z,90.30
2018-10-16T06:50:56.331Z,90.30
2018-10-16T06:53:24.858Z,90.30
2018-10-16T06:55:53.410Z,90.10
2018-10-16T06:58:21.877Z,90.20
2018-10-16T07:00:50.335Z,90.20
2018-10-16T07:03:18.791Z,90.10
2018-10-16T07:05:47.257Z,90.20
2018-10-16T07:08:15.749Z,89.70
2018-10-16T07:10:44.245Z,90.10
2018-10-16T07:13:12.687Z,90.00
2018-10-16T07:15:41.185Z,90.20
2018-10-16T07:18:09.643Z,89.50
2018-10-16T07:20:38.120Z,89.20
2018-10-16T07:23:06.633Z,89.30
2018-10-16T07:25:35.133Z,89.30
2018-10-16T07:28:03.634Z,88.80
2018-10-16T07:30:32.093Z,89.20
2018-10-16T07:33:00.549Z,89.40
2018-10-16T07:35:29.069Z,88.90
2018-10-16T07:37:57.712Z,89.40
2018-10-16T07:40:26.051Z,89.30
2018-10-16T07:42:54.502Z,89.80
2018-10-16T07:45:22.950Z,89.10
2018-10-16T07:47:51.421Z,89.00
2018-10-16T07:50:19.909Z,89.00
2018-10-16T07:52:48.379Z,88.90
2018-10-16T07:55:16.877Z,88.10
2018-10-16T07:57:45.313Z,87.20
2018-10-16T08:00:13.845Z,81.00
2018-10-16T08:02:43.549Z,83.90
2018-10-16T08:05:12.882Z,85.30
2018-10-16T08:07:42.071Z,82.10
2018-10-16T08:10:12.326Z,81.50
2018-10-16T08:12:40.983Z,78.20
2018-10-16T08:15:10.094Z,76.70
2018-10-16T08:17:38.966Z,75.10
2018-10-16T08:20:07.434Z,74.80
2018-10-16T08:22:35.886Z,73.60
2018-10-16T08:25:04.657Z,72.70
2018-10-16T08:27:33.207Z,73.60
2018-10-16T08:30:01.860Z,75.90
2018-10-16T08:32:30.442Z,71.80
2018-10-16T08:34:59.062Z,70.40
2018-10-16T08:38:36.442Z,70.40
2018-10-16T08:41:07.208Z,71.40
2018-10-16T08:43:48.586Z,69.80
2018-10-16T08:46:28.766Z,69.60
2018-10-16T08:49:08.774Z,69.60
2018-10-16T08:51:43.715Z,71.70
2018-10-16T08:54:12.209Z,71.70
2018-10-16T08:56:40.999Z,72.80
2018-10-16T08:59:09.522Z,72.40
2018-10-16T09:01:37.978Z,72.80
2018-10-16T09:04:06.581Z,68.60
2018-10-16T09:06:35.122Z,67.40
2018-10-16T09:09:05.230Z,68.40
2018-10-16T09:11:33.680Z,65.60
2018-10-16T09:14:02.217Z,66.40
2018-10-16T09:16:30.699Z,65.60
2018-10-16T09:18:59.165Z,65.30
2018-10-16T09:21:27.637Z,67.70
2018-10-16T09:23:56.117Z,66.90
2018-10-16T09:26:24.614Z,65.10
2018-10-16T09:28:53.125Z,65.80
2018-10-16T09:31:21.587Z,60.70
2018-10-16T09:33:50.039Z,61.90
2018-10-16T09:36:18.696Z,64.10
2018-10-16T09:38:47.183Z,59.40
2018-10-16T09:41:15.654Z,58.70
2018-10-16T09:43:44.139Z,60.30
2018-10-16T09:46:12.591Z,57.80
2018-10-16T09:48:41.106Z,59.70
2018-10-16T09:51:09.593Z,60.00
2018-10-16T09:53:38.079Z,60.20
2018-10-16T09:56:06.612Z,60.80
2018-10-16T09:58:35.062Z,60.20
2018-10-16T10:01:09.010Z,60.90
2018-10-16T10:03:37.468Z,61.70
2018-10-16T10:06:05.974Z,60.80
2018-10-16T10:08:34.463Z,60.60
2018-10-16T10:11:03.030Z,60.50
2018-10-16T10:13:31.469Z,58.50
2018-10-16T10:15:59.930Z,58.00
2018-10-16T10:18:28.410Z,59.50
2018-10-16T10:20:56.870Z,58.90
2018-10-16T10:23:25.395Z,60.50
2018-10-16T10:25:53.861Z,58.40
2018-10-16T10:28:22.295Z,59.30
2018-10-16T10:30:50.775Z,59.90
2018-10-16T10:33:19.210Z,58.40
2018-10-16T10:35:47.785Z,56.30
2018-10-16T10:38:16.389Z,56.20
2018-10-16T10:40:44.855Z,57.00
2018-10-16T10:43:13.302Z,56.00
2018-10-16T10:45:41.806Z,55.80
2018-10-16T10:48:10.382Z,55.80
2018-10-16T10:50:39.209Z,57.00
2018-10-16T10:53:07.385Z,57.00
2018-10-16T10:55:35.870Z,56.00
2018-10-16T10:58:04.345Z,55.10
2018-10-16T11:00:32.855Z,54.50
2018-10-16T11:03:01.446Z,54.70
2018-10-16T11:05:29.861Z,56.30
2018-10-16T11:07:58.301Z,55.40
2018-10-16T11:10:26.758Z,55.70
2018-10-16T11:12:55.227Z,53.90
2018-10-16T11:15:23.736Z,55.30
2018-10-16T11:17:52.205Z,55.50
2018-10-16T11:20:20.685Z,54.20
2018-10-16T11:22:49.210Z,56.20
2018-10-16T11:25:17.652Z,53.10
2018-10-16T11:27:46.289Z,55.40
2018-10-16T11:30:15.639Z,53.60
2018-10-16T11:32:44.257Z,53.60
2018-10-16T11:35:13.959Z,53.80
2018-10-16T11:37:42.516Z,53.60
2018-10-16T11:40:11.451Z,54.50
2018-10-16T11:42:40.656Z,55.40
2018-10-16T11:45:09.344Z,55.70
2018-10-16T11:47:38.413Z,56.90
2018-10-16T11:50:08.301Z,56.50
2018-10-16T11:52:36.769Z,54.00
2018-10-16T11:55:06.378Z,54.20
2018-10-16T11:57:34.848Z,55.00
2018-10-16T12:00:03.423Z,54.60
2018-10-16T12:02:32.045Z,54.90
2018-10-16T12:05:00.453Z,56.20
2018-10-16T12:07:28.914Z,57.10
2018-10-16T12:09:57.374Z,54.90
2018-10-16T12:12:25.878Z,56.60
2018-10-16T12:14:54.375Z,56.60
2018-10-16T12:17:31.982Z,56.60
2018-10-16T12:20:04.075Z,56.40
2018-10-16T12:22:32.638Z,54.70
2018-10-16T12:25:01.164Z,54.20
2018-10-16T12:27:29.618Z,55.40
2018-10-16T12:29:58.110Z,54.10
2018-10-16T12:32:26.621Z,54.80
2018-10-16T12:34:55.114Z,52.50
2018-10-16T12:37:23.606Z,53.30
2018-10-16T12:39:52.150Z,55.20
2018-10-16T12:42:20.548Z,56.40
2018-10-16T12:44:49.062Z,55.50
2018-10-16T12:47:17.520Z,56.60
2018-10-16T12:49:45.987Z,58.30
2018-10-16T12:52:14.558Z,57.20
2018-10-16T12:54:42.989Z,58.50
2018-10-16T12:57:11.488Z,56.30
2018-10-16T12:59:39.981Z,56.30
2018-10-16T13:02:08.568Z,58.10
2018-10-16T13:04:37.031Z,56.00
2018-10-16T13:07:10.180Z,56.90
2018-10-16T13:09:38.682Z,58.30
2018-10-16T13:12:07.190Z,57.80
2018-10-16T13:14:35.705Z,59.50
2018-10-16T13:17:04.259Z,58.30
2018-10-16T13:19:32.725Z,57.40
2018-10-16T13:22:01.221Z,59.20
2018-10-16T13:24:29.622Z,56.40
2018-10-16T13:26:58.117Z,57.80
2018-10-16T13:29:26.724Z,58.30
2018-10-16T13:31:55.068Z,58.30
2018-10-16T13:34:23.548Z,58.30
2018-10-16T13:36:52.046Z,57.90
2018-10-16T13:39:20.498Z,57.80
2018-10-16T13:41:48.966Z,58.00
2018-10-16T13:44:17.458Z,58.80
2018-10-16T13:46:45.930Z,59.10
2018-10-16T13:49:14.381Z,59.10
2018-10-16T13:51:42.878Z,59.40
2018-10-16T13:54:11.330Z,59.10
2018-10-16T13:56:39.849Z,59.60
2018-10-16T13:59:08.250Z,60.40
2018-10-16T14:01:36.725Z,59.90
2018-10-16T14:04:05.273Z,59.90
2018-10-16T14:06:33.723Z,60.00
2018-10-16T14:09:02.262Z,60.80
2018-10-16T14:11:30.762Z,60.30
2018-10-16T14:13:59.263Z,61.10
2018-10-16T14:16:27.753Z,62.10
2018-10-16T14:18:56.238Z,61.30
2018-10-16T14:21:25.198Z,61.80
2018-10-16T14:23:53.662Z,60.20
2018-10-16T14:26:22.161Z,61.30
2018-10-16T14:28:50.641Z,61.10
2018-10-16T14:31:19.129Z,62.50
2018-10-16T14:33:47.665Z,63.60
2018-10-16T14:36:16.085Z,63.70
2018-10-16T14:38:44.540Z,64.80
2018-10-16T14:41:13.043Z,64.30
2018-10-16T14:43:41.499Z,64.20
2018-10-16T14:46:10.006Z,64.70
2018-10-16T14:48:38.460Z,65.00
2018-10-16T14:51:06.918Z,65.20
2018-10-16T14:53:35.393Z,66.00
2018-10-16T14:56:03.909Z,67.00
2018-10-16T14:58:32.351Z,66.40
2018-10-16T15:01:00.869Z,66.70
2018-10-16T15:03:29.341Z,66.40
2018-10-16T15:05:57.818Z,66.90
2018-10-16T15:08:26.316Z,67.50
2018-10-16T15:10:54.790Z,67.10
2018-10-16T15:13:23.283Z,68.90
2018-10-16T15:15:51.754Z,69.10
2018-10-16T15:18:20.211Z,68.10
2018-10-16T15:20:48.668Z,68.80
2018-10-16T15:23:17.153Z,69.20
2018-10-16T15:25:45.601Z,69.00
2018-10-16T15:28:14.102Z,69.60
2018-10-16T15:30:42.510Z,70.70
2018-10-16T15:33:10.989Z,70.80
2018-10-16T15:35:39.551Z,70.40
2018-10-16T15:38:08.046Z,71.00
2018-10-16T15:40:36.500Z,71.80
2018-10-16T15:43:04.999Z,73.20
2018-10-16T15:45:33.494Z,73.90
2018-10-16T15:48:01.982Z,73.10
2018-10-16T15:50:30.460Z,74.50
2018-10-16T15:52:58.911Z,74.90
2018-10-16T15:55:27.362Z,76.10
2018-10-16T15:57:55.874Z,77.20
2018-10-16T16:00:24.342Z,77.10
2018-10-16T16:02:52.843Z,78.40
2018-10-16T16:05:21.338Z,79.30
2018-10-16T16:07:49.811Z,79.50
2018-10-16T16:10:18.291Z,79.50
2018-10-16T16:12:46.743Z,79.00
2018-10-16T16:15:15.229Z,80.00
2018-10-16T16:17:44.224Z,80.20
2018-10-16T16:20:14.041Z,81.10
2018-10-16T16:22:42.509Z,81.90
2018-10-16T16:25:13.104Z,81.30
2018-10-16T16:27:41.580Z,81.30
2018-10-16T16:30:12.207Z,81.60
2018-10-16T16:32:40.918Z,82.30
2018-10-16T16:35:09.463Z,82.60
2018-10-16T16:37:37.899Z,82.50
2018-10-16T16:40:08.367Z,82.20
2018-10-16T16:42:36.817Z,81.70
2018-10-16T16:45:06.093Z,81.90
2018-10-16T16:47:34.542Z,82.50
2018-10-16T16:50:03.053Z,82.70
2018-10-16T16:52:31.523Z,82.30
2018-10-16T16:54:59.975Z,82.00
2018-10-16T16:57:28.502Z,81.70
2018-10-16T16:59:56.986Z,81.80
2018-10-16T17:02:25.435Z,82.50
2018-10-16T17:04:53.909Z,82.40
2018-10-16T17:07:22.381Z,82.50
2018-10-16T17:09:50.847Z,82.30
2018-10-16T17:12:19.351Z,82.20
2018-10-16T17:14:47.787Z,82.80
2018-10-16T17:17:16.267Z,83.10
2018-10-16T17:19:44.730Z,83.10
2018-10-16T17:22:13.196Z,83.20
2018-10-16T17:24:41.765Z,83.60
2018-10-16T17:27:10.138Z,83.70
2018-10-16T17:29:38.622Z,83.80
2018-10-16T17:32:07.093Z,84.00
2018-10-16T17:34:35.741Z,83.80
2018-10-16T17:37:04.253Z,84.10
2018-10-16T17:39:32.773Z,83.80
2018-10-16T17:42:01.229Z,83.50
2018-10-16T17:44:29.698Z,83.80
2018-10-16T17:46:59.169Z,84.30
2018-10-16T17:49:27.667Z,84.30
2018-10-16T17:51:56.138Z,84.20
2018-10-16T17:54:24.588Z,84.30
2018-10-16T17:56:53.115Z,84.30
2018-10-16T17:59:21.575Z,84.80
2018-10-16T18:01:50.058Z,85.20
2018-10-16T18:04:18.542Z,85.20
2018-10-16T18:06:46.990Z,85.00
2018-10-16T18:09:15.460Z,84.90
2018-10-16T18:11:44.066Z,85.30
2018-10-16T18:14:12.506Z,85.50
2018-10-16T18:16:41.054Z,85.60
2018-10-16T18:19:09.538Z,85.90
2018-10-16T18:21:37.997Z,86.00
2018-10-16T18:24:06.939Z,86.00
2018-10-16T18:26:35.402Z,85.60
2018-10-16T18:29:03.893Z,85.30
2018-10-16T18:31:32.351Z,85.80
2018-10-16T18:34:00.827Z,85.60
2018-10-16T18:36:29.294Z,86.10
2018-10-16T18:38:57.821Z,86.60
2018-10-16T18:41:26.255Z,86.60
2018-10-16T18:43:54.738Z,86.80
2018-10-16T18:46:23.203Z,86.90
2018-10-16T18:48:51.720Z,87.40
2018-10-16T18:51:20.203Z,86.50
2018-10-16T18:53:48.721Z,86.80
2018-10-16T18:56:17.202Z,86.10
2018-10-16T18:58:45.798Z,86.50
2018-10-16T19:01:14.295Z,87.00
2018-10-16T19:03:42.798Z,87.20
2018-10-16T19:06:11.237Z,87.20
2018-10-16T19:08:39.719Z,88.10
2018-10-16T19:11:08.197Z,87.40
2018-10-16T19:13:36.670Z,87.60
2018-10-16T19:16:05.634Z,87.70
2018-10-16T19:18:34.098Z,87.80
2018-10-16T19:21:02.570Z,88.10
2018-10-16T19:23:31.050Z,88.00
2018-10-16T19:25:59.486Z,88.10
2018-10-16T19:28:27.973Z,88.80
2018-10-16T19:30:56.467Z,88.70
2018-10-16T19:33:24.931Z,88.90
2018-10-16T19:35:53.417Z,89.20
2018-10-16T19:38:21.902Z,89.30
2018-10-16T19:40:50.342Z,90.00
2018-10-16T19:43:18.802Z,89.80
2018-10-16T19:45:47.285Z,90.00
2018-10-16T19:48:15.777Z,89.70
2018-10-16T19:50:44.246Z,89.70
2018-10-16T19:53:12.746Z,89.20
2018-10-16T19:55:41.225Z,89.40
2018-10-16T19:58:09.682Z,89.60
2018-10-16T20:00:38.115Z,89.80
2018-10-16T20:03:06.597Z,89.20
2018-10-16T20:05:35.091Z,89.40
2018-10-16T20:08:03.635Z,89.30
2018-10-16T20:10:32.125Z,89.80
2018-10-16T20:13:00.583Z,90.00
2018-10-16T20:15:29.059Z,89.90
2018-10-16T20:17:57.523Z,90.10
2018-10-16T20:20:26.013Z,90.10
2018-10-16T20:22:54.467Z,90.10
2018-10-16T20:25:23.042Z,90.20
2018-10-16T20:27:51.478Z,90.10
2018-10-16T20:30:19.947Z,89.70
2018-10-16T20:32:48.394Z,89.90
2018-10-16T20:35:16.889Z,90.00
2018-10-16T20:37:45.350Z,90.00
2018-10-16T20:40:13.823Z,90.30
2018-10-16T20:42:42.282Z,90.30
2018-10-16T20:45:10.735Z,90.40
2018-10-16T20:47:39.240Z,90.40
2018-10-16T20:50:07.881Z,90.40
2018-10-16T20:52:36.498Z,90.20
2018-10-16T20:55:05.661Z,90.30
2018-10-16T20:57:34.103Z,90.50
2018-10-16T21:00:03.286Z,90.50
2018-10-16T21:02:31.723Z,90.60
2018-10-16T21:05:00.502Z,90.90
2018-10-16T21:07:28.805Z,90.70
2018-10-16T21:09:57.266Z,90.80
2018-10-16T21:12:25.714Z,90.90
2018-10-16T21:14:54.186Z,90.90
2018-10-16T21:17:22.622Z,90.90
2018-10-16T21:19:51.116Z,90.80
2018-10-16T21:22:19.569Z,90.90
2018-10-16T21:24:48.015Z,91.00
2018-10-16T21:27:16.470Z,91.00
2018-10-16T21:29:44.945Z,91.20
2018-10-16T21:32:13.473Z,91.10
2018-10-16T21:34:41.922Z,91.10
2018-10-16T21:37:10.445Z,91.10
2018-10-16T21:39:39.305Z,91.20
2018-10-16T21:42:08.097Z,91.30
2018-10-16T21:44:36.589Z,91.30
2018-10-16T21:47:05.492Z,91.40
2018-10-16T21:49:33.936Z,91.50
2018-10-16T21:52:02.394Z,91.60
2018-10-16T21:54:30.846Z,91.70
2018-10-16T21:56:59.368Z,91.60
2018-10-16T21:59:27.874Z,91.40
2018-10-16T22:02:01.834Z,91.20
2018-10-16T22:04:30.337Z,91.20
2018-10-16T22:06:58.849Z,90.90
2018-10-16T22:09:27.317Z,90.90
2018-10-16T22:11:55.787Z,91.10
2018-10-16T22:14:24.279Z,91.00
2018-10-16T22:16:53.661Z,91.00
2018-10-16T22:19:22.092Z,91.00
2018-10-16T22:21:50.577Z,90.80
2018-10-16T22:24:19.025Z,91.00
2018-10-16T22:26:47.517Z,91.10
2018-10-16T22:29:15.964Z,91.00
2018-10-16T22:31:44.481Z,91.00
2018-10-16T22:34:12.973Z,91.20
2018-10-16T22:36:41.454Z,91.40
2018-10-16T22:39:10.781Z,91.40
2018-10-16T22:41:39.553Z,91.30
2018-10-16T22:44:08.659Z,91.30
2018-10-16T22:46:37.420Z,91.30
2018-10-16T22:49:06.378Z,91.20
2018-10-16T22:51:34.824Z,91.30
2018-10-16T22:54:03.337Z,91.30
2018-10-16T22:56:31.814Z,91.50
2018-10-16T22:59:00.319Z,91.40
2018-10-16T23:01:28.805Z,91.50
2018-10-16T23:03:57.326Z,91.50
2018-10-16T23:06:25.824Z,91.50
2018-10-16T23:08:54.289Z,91.40
2018-10-16T23:11:22.716Z,91.60
2018-10-16T23:13:51.213Z,91.70
2018-10-16T23:16:19.673Z,91.90
2018-10-16T23:18:48.135Z,91.90
2018-10-16T23:21:16.579Z,92.00
2018-10-16T23:23:45.031Z,91.90
2018-10-16T23:26:13.513Z,91.90
2018-10-16T23:28:42.005Z,92.00
2018-10-16T23:31:10.558Z,92.10
2018-10-16T23:33:38.966Z,92.00
2018-10-16T23:36:07.518Z,92.00
2018-10-16T23:38:35.985Z,92.20
2018-10-16T23:41:04.512Z,92.20
2018-10-16T23:43:32.996Z,92.00
2018-10-16T23:46:01.416Z,92.20
2018-10-16T23:48:29.932Z,92.30
2018-10-16T23:50:58.394Z,92.10
2018-10-16T23:53:26.819Z,92.20
2018-10-16T23:55:55.301Z,92.20
2018-10-16T23:58:23.746Z,92.40
